This is the latest recevied weather packets stored in our database for station/object KJ7BRE-1. If no packets are shown the sender has not sent any weather packets the latest 10 day(s).
| Time | Temp. | Humidity | Pressure | Rain* | Wind** | Luminosity | Snow |
|---|---|---|---|---|---|---|---|
| 1778275630 | 18.89° C | 47% | 1015.6 hPa | 0 mm | - | - | - |
| 1778275329 | 19.44° C | 46% | 1015.6 hPa | 0 mm | - | - | - |
| 1778275027 | 18.89° C | 47% | 1015.6 hPa | 0 mm | - | - | - |
| 1778274726 | 19.44° C | 46% | 1015.6 hPa | 0 mm | - | - | - |
| 1778274425 | 18.33° C | 49% | 1015.6 hPa | 0 mm | - | - | - |
| 1778274123 | 17.78° C | 51% | 1015.6 hPa | 0 mm | - | - | - |
| 1778273822 | 17.22° C | 52% | 1015.9 hPa | 0 mm | - | - | - |
| 1778273521 | 17.22° C | 52% | 1015.6 hPa | 0 mm | - | - | - |
| 1778273220 | 17.22° C | 49% | 1015.6 hPa | 0 mm | - | - | - |
| 1778272918 | 17.22° C | 50% | 1015.6 hPa | 0 mm | - | - | - |
| 1778272617 | 17.22° C | 51% | 1015.6 hPa | 0 mm | - | - | - |
| 1778272316 | 17.78° C | 49% | 1015.9 hPa | 0 mm | - | - | - |
| 1778271713 | 17.78° C | 48% | 1015.6 hPa | 0 mm | - | - | - |
| 1778271412 | 17.78° C | 49% | 1015.9 hPa | 0 mm | - | - | - |
| 1778271111 | 17.78° C | 49% | 1015.9 hPa | 0 mm | - | - | - |
| 1778270810 | 17.22° C | 50% | 1015.9 hPa | 0 mm | - | - | - |
| 1778270509 | 16.67° C | 51% | 1015.9 hPa | 0 mm | - | - | - |
| 1778270207 | 17.78° C | 49% | 1016.3 hPa | 0 mm | - | - | - |
| 1778269906 | 17.78° C | 49% | 1015.9 hPa | 0 mm | - | - | - |
| 1778269605 | 16.67° C | 52% | 1016.3 hPa | 0 mm | - | - | - |
| 1778269304 | 16.67° C | 50% | 1015.9 hPa | 0 mm | - | - | - |
| 1778269002 | 16.67° C | 52% | 1015.9 hPa | 0 mm | - | - | - |
| 1778268701 | 16.67° C | 53% | 1015.9 hPa | 0 mm | - | - | - |
| 1778268400 | 15.56° C | 55% | 1015.9 hPa | 0 mm | - | - | - |
| 1778268099 | 16.11° C | 54% | 1015.9 hPa | 0 mm | - | - | - |
* Rain latest hour (hover to see other rain measurements)
** Current wind speed in m/s (hover to see current wind gust speed)